Airfield :
LOGIN :

Register | Disclaimer

   EN    FR    IT 

 










Legend :    VFR   Marginal VFR   IFR   Intensive IFR   Very Intensive IFR
Visi :
Ceiling :
>= 8 km
>= 3000ft
5 to 8 km
1000 to 3000 ft
1500m to 5 km
500 to 1000 ft
800 to 1500m
200 to 500 ft
< 800m
< 200 ft
Symbols :   Thunderstorms  Fog  Heavy snow  Heavy precipitations  Wind > 20 kt
SIGMETs :     Misc.  Thunderstorms  Icing  Turbulence  Mountain Waves  Volcanic Ashes







- Airport Elevation : 36 ft
- IATA code : LTQ
- Download approach charts


LFAT - Le Touquet

CURRENT METAR :
  • 180730Z AUTO 28021G37KT 250V310 9000 OVC031 10/05 Q0999 TEMPO 27035G50KT

EXPIRED METARs :
  • 180700Z AUTO 28019G31KT 250V310 9000 SCT028 OVC034 11/06 Q0998 TEMPO 27035G50KT
  • 180630Z AUTO 27023G39KT 240V300 8000 BKN025 OVC031 11/08 Q0997 TEMPO 27035G50KT
  • 180600Z AUTO 26021G39KT 230V300 8000 BKN021 OVC028 11/09 Q0996 TEMPO 27035G50KT
  • 180530Z AUTO 25020G33KT 230V290 8000 BKN013 BKN020 OVC029 11/09 Q0996 TEMPO 27035G50KT BECMG SCT030
  • 180500Z AUTO 25020G35KT 210V280 7000 -DZ BKN009 OVC015 11/10 Q0996

TAF TAF LFAT
Valid from the 18 at 06:00 until the 18 at 15:00 UTC


180500Z 1806/1815 27025G40KT 9999 SCT030
TEMPO 1806/1809 27035G50KT
BECMG 1810/1812 27020G30KT
ATIS : +33 3 21 06 62 84
No reported NOTAMs for that airfield.
3 SIGMETs reported for the Paris FIR (LFFF) :
 
Severe turbulence
LFFF SIGMET 4 VALID 180600/180900 LFPW
LFFF PARIS FIR/UIR SEV TURB FCST NW OF LINE N4745 E00445 - N4715 W00015 SFC/FL060 STNR NC=
SIGMET 2  cancelation
LFFF SIGMET 3 VALID 180445/180900 LFPW
LFFF PARIS FIR/UIR CNL SIGMET 2 180500/180900=
SIGMET 2  CANCELED :
Severe turbulence
LFFF SIGMET 2 VALID 180500/180900 LFPW
LFFF PARIS FIR/UIR SEV TURB FCST WI N5000 E00500 - N4930 E00600 - N4900 E00445 - N4830 E00530 - N4730 E00415 - N4700 E00430 - N4700 E00400 - N5000 E00500 SFC/FL060 STNR INTSF=



MET'MAP, your aeronautical weather chart ! - Copyright ORBIFLY December 2007 - Disclaimer

ORBIFLY MET'MAP TEAM :

Programming & Development : Alexandra Zaïnal
Concept & Development : Baudouin d'Aumeries
Co-Development & Prog : Marc-Olivier Méhu
Technical & hardware support : Manuel Goepfert

Contact : metmap@orbifly.com




SOURCES & CREDITS :

   NOAA